Terminal Aerodrome Forecast
Issued by NWS

Home | Current Version | Previous Version | Text Only | Print | Product List | Glossary On
Versions: 1 2 3 4 5 6 7 8 9 10 11 12 13 14 15 16 17 18 19 20
785
FTUS43 KJKL 291342 AAA
TAFSME
TAF AMD
KSME 291342Z 2914/3012 00000KT P6SM BKN008
     FM291430 23005KT P6SM OVC015
     FM291800 24006KT P6SM VCTS SCT020CB BKN035
     FM300300 00000KT 5SM BR SCT040 BKN200
     FM300900 00000KT 3SM BR SCT003 BKN008=

USA.gov is the U.S. government's official web portal to all federal, state and local government web resources and services.